World of Logs combat log analyzer allows gamers to save, share and analyze their raiding experiences conveniently and thoroughly in the Blizzard MMO World of Warcraft. If you're new here, make sure you check out the tour for a 1 minute introduction. If you have any questions, we're happy to answer them on the forums.

DPS HPS
Odyn
Helya
Guarm
Reports for Valithria Dreamwalker - statistics
# Date Time Damage DPS Guild Realm
901 30 Apr 2012 03:46 7.42M 32778.0 Donjon EU-Dalaran
902 01 Dec 2010 03:46 3.57M 15766.8 Treehugging Hippies EU-Runetotem
903 15 Sep 2019 03:46 18.11M 79983.9 Chalapacho EU-Blackrock
904 15 Sep 2019 03:46 18.12M 80007.9 SuperBads EU-Aegwynn
905 22 Sep 2019 03:46 13.87M 61221.7 Nerdmigos RG EU-Nera'thor
906 26 Nov 2010 03:46 115.51M 509840.7 Blood of the Titans US-Eonar
907 12 Oct 2019 03:46 8.96M 39525.6 Klang Effekt EU-Wildhammer
908 29 Jun 2012 03:46 3.65M 16117.7 malvexovci EU-Thunderhorn
909 14 Jul 2012 03:46 3.88M 17110.5 Amelog EU-Argent Dawn
910 19 Jan 2012 03:46 5.21M 22957.1 The Risen US-Sargeras
911 09 Nov 2010 03:46 5.16M 22751.8 Descendants US-Baelgun
912 19 Mar 2011 03:47 5.10M 22475.5 Vintage (Eazycheeze) US-Mal'Ganis
913 05 Jan 2012 03:47 34.45M 151688.0 Mail Order Brides US-Shu'halo
914 14 Jan 2011 03:47 5.00M 22022.6 No Sleep til Stormwind US-Cenarius
915 07 Feb 2011 03:47 4.98M 21883.7 My Little Pwnys EU-Kil'jaeden
916 24 May 2011 03:47 44.86M 197267.3 Live n Twitchin EU-Arathor
917 18 Jun 2011 03:47 3.53M 15522.0 Mostly Harmless US-Undermine
918 31 Jul 2019 03:47 16.80M 73826.7 Auatisten EU-Frostmourne
919 09 Mar 2012 03:47 64.33M 282643.9 Mormot's Logs US-Andorhal
920 18 Sep 2019 03:47 16.54M 72595.0 Höllenhunde EU-Dalaran
921 18 Sep 2019 03:47 16.56M 72716.4 Angels of Mercy EU-Das Konsortium
922 27 Jun 2010 03:47 2.84M 12467.2 Arcana Solarie US-Steamwheedle Cartel
923 22 Apr 2012 03:47 3.59M 15742.2 Is Awesome EU-Blackhand
924 29 May 2010 03:48 3.35M 14691.0 Там Разберемся EU-Разувий
925 30 Dec 2017 03:48 5.00M 21922.9 Knights of Light US-Winterhoof
926 26 Nov 2010 03:48 4.99M 21873.2 ЗАО Паровоз EU-Азурегос
927 02 Dec 2010 03:48 4.69M 20552.3 Random Pugs US-Bladefist
928 09 May 2010 03:48 4.78M 20926.3 Volcano Legion EU-Neptulon
929 10 Apr 2011 03:48 5.17M 22634.6 Iradei US-Caelestrasz
930 23 Aug 2019 03:48 13.34M 58439.8 Angels of Mercy EU-Das Konsortium
931 11 Nov 2011 03:48 3.42M 14968.1 Les Incorruptibles EU-Eitrigg
932 01 Jan 2011 03:48 5.31M 23219.3 New Generation Inc EU-Rexxar
933 22 Apr 2010 03:48 4.45M 19434.2 Just Me Myself and I US-Stormrage
934 23 May 2019 03:48 13.13M 57390.8 Auatisten EU-Frostmourne
935 18 Sep 2010 03:48 3.30M 14409.5 CaReBeaR CluB US-Velen
936 30 Nov 2010 03:49 4.88M 21287.3 Ensis Dei US-Windrunner
937 10 Mar 2012 03:49 4.78M 20863.9 Coeurs Métis EU-Hyjal
938 10 Nov 2019 03:49 17.00M 74122.5 Angels of Mercy EU-Das Konsortium
939 13 Nov 2011 03:49 3.79M 16488.9 Batlh's Data US-Zuluhed
940 03 Dec 2010 03:49 4.75M 20681.1 Next Try EU-Blackhand
941 10 Apr 2010 03:49 4.69M 20440.2 The Wyld Hunt EU-Argent Dawn
942 10 Apr 2010 03:49 4.69M 20440.2 The Wyld Hunt EU-Argent Dawn
943 23 Dec 2010 03:49 4.97M 21621.4 Valence US-Thrall
944 04 Sep 2019 03:49 16.82M 73208.4 EnRaged US-Zul'jin
945 13 Oct 2011 03:49 6.15M 26738.8 Incarnate US-Ner'zhul
946 09 Nov 2010 03:49 5.05M 21977.9 Sparkle Magic US-Proudmoore
947 13 Feb 2012 03:49 5.36M 23289.1 swiss bankers EU-Silvermoon
948 20 Mar 2011 03:49 5.31M 23100.9 Asthiria EU-Marécage de Zangar
949 01 Mar 2010 03:50 86.76M 377038.8 Reckoning US-Dragonblight
950 27 Oct 2011 03:50 6.03M 26195.1 End of Days EU-Auchindoun
951 03 Dec 2010 03:50 4.98M 21609.0 Utopie EU-Blackrock
952 28 Nov 2010 03:50 5.12M 22219.3 No Stuff No Skill EU-Varimathras
953 04 Apr 2012 03:50 2.75M 11922.4 CutTheBlueWire US-Area 52
954 17 Mar 2010 03:50 4.69M 20329.0 Whine Wipe und Gezank EU-Mal'Ganis
955 14 Oct 2019 03:50 18.14M 78632.6 EnRaged US-Zul'jin
956 22 Apr 2012 03:50 4.73M 20507.6 Joy's PuG Logs US-Blackwater Raiders
957 14 Dec 2011 03:50 5.59M 24218.2 Double Jeopardy US-Mannoroth
958 11 Mar 2012 03:51 36.59M 158340.6 Зеро EU-Дракономор
959 10 Oct 2011 03:51 7.16M 30979.9 Second Blood EU-Terenas
960 24 Aug 2019 03:51 17.74M 76748.0 Angels of Mercy EU-Das Konsortium
961 01 Dec 2010 03:51 4.98M 21538.2 Eternal Serenity EU-Mazrigos
962 23 Nov 2011 03:51 4.22M 18245.0 Cool Whip US-Zul'jin
963 09 Apr 2010 03:51 4.52M 19534.3 Ludicrous Speed US-Skullcrusher
964 24 Apr 2010 03:51 5.16M 22275.2 TekiCombatLogs EU-Гордунни
965 20 Aug 2019 03:51 17.60M 76026.2 Auatisten EU-Frostmourne
966 18 Jul 2012 03:51 3.64M 15726.1 Rome in a Day EU-Silvermoon
967 27 Nov 2011 03:51 7.25M 31301.1 AGGRESSION US-Sargeras
968 26 Apr 2010 03:51 5.24M 22584.9 Snowflakes EU-Frostmane
969 27 Aug 2010 03:52 5.08M 21896.1 Passion EU-Draenor
970 25 Feb 2010 03:52 4.50M 19358.7 get crit US-Daggerspine
971 19 Nov 2010 03:52 5.18M 22309.1 Deathproof EU-Todeswache
972 28 Sep 2011 03:52 36.12M 155388.5 Kill Team US-Gnomeregan
973 17 Apr 2010 03:52 4.63M 19934.5 Alani-Test EU-Garrosh
974 11 Feb 2011 03:52 3.80M 16368.6 Beyond Redemption EU-Magtheridon
975 25 Feb 2011 03:52 6.16M 26471.6 Ulysses EU-Blackrock
976 01 Sep 2019 03:52 18.23M 78389.7 SuperBads EU-Aegwynn
977 11 Feb 2019 03:52 18.34M 78840.2 Destiny EU-Doomhammer
978 15 Aug 2010 03:52 4.78M 20521.4 The Wyld Hunt EU-Argent Dawn
979 19 Dec 2010 03:53 4.95M 21212.1 Iron Circle US-Llane
980 17 Apr 2012 03:53 5.03M 21571.7 DruckeriaTM EU-Ravencrest
981 08 Jul 2018 03:53 3.54M 15166.9 Ridiculous EU-Agamaggan
982 08 Jul 2018 03:53 3.54M 15166.9 Ridiculous EU-Agamaggan
983 18 Sep 2019 03:53 13.84M 59318.6 PropagandaPanda EU-Aegwynn
984 24 Nov 2010 03:53 5.03M 21565.2 Langeweile EU-Nazjatar
985 07 Nov 2011 03:53 5.12M 21924.6 Reiditio Pravum EU-Ysera
986 08 Jul 2019 03:53 15.12M 64700.3 Auatisten EU-Frostmourne
987 20 Aug 2010 03:53 4.72M 20197.4 The Wyld Hunt EU-Argent Dawn
988 05 Nov 2011 03:53 35.44M 151472.5 Red Shadows US-Llane
989 14 Oct 2019 03:53 18.05M 77167.2 Angels of Mercy EU-Das Konsortium
990 14 Oct 2019 03:53 18.08M 77274.4 Destiny EU-Doomhammer
991 18 Nov 2010 03:54 4.88M 20841.1 Shilling Banco EU-Chamber of Aspects
992 12 Nov 2010 03:54 5.08M 21677.0 GLA US-Executus
993 27 Jun 2012 03:54 5.32M 22679.9 Templer des Kreuzordens EU-Die Nachtwache
994 06 Nov 2011 03:54 4.88M 20821.4 Twilight Incursion - Daps Group US-Quel'dorei
995 26 Feb 2011 03:54 3.49M 14894.0 Artum Inferniti EU-Arathor
996 30 Sep 2019 03:54 17.72M 75608.8 EnRaged US-Zul'jin
997 03 Dec 2011 03:54 5.47M 23353.6 Tilt BR US-Quel'Thalas
998 31 Mar 2010 03:54 4.99M 21269.1 Mércenary EU-Thunderhorn
999 22 Jul 2019 03:54 18.68M 79627.4 Destiny EU-Doomhammer
1000 24 Oct 2018 03:54 4.29M 18300.0 Raid Inc EU-Onyxia

Please do not close the page with the ad you want to report.

I've posted a guide on how to report misbehaving ads on the forum. Please follow the instructions and help make the internet a safer place. Thanks for you time.